createdAt,value
2022-08-28T00:01:15.978Z,5.68
2022-08-28T00:04:02.435Z,5.47
2022-08-28T00:06:47.980Z,5.72
2022-08-28T00:09:33.666Z,5.38
2022-08-28T00:12:19.552Z,5.15
2022-08-28T00:15:09.701Z,5.03
2022-08-28T00:17:59.459Z,5.53
2022-08-28T00:20:46.518Z,5.60
2022-08-28T00:23:42.745Z,6.07
2022-08-28T00:26:47.469Z,6.75
2022-08-28T00:29:34.015Z,6.53
2022-08-28T00:32:28.781Z,5.38
2022-08-28T00:35:14.271Z,5.82
2022-08-28T00:38:00.521Z,6.70
2022-08-28T00:40:48.901Z,5.68
2022-08-28T00:43:42.369Z,5.32
2022-08-28T00:46:27.812Z,5.65
2022-08-28T00:49:17.365Z,5.38
2022-08-28T00:52:11.816Z,6.07
2022-08-28T00:55:14.124Z,5.60
2022-08-28T00:58:01.053Z,4.80
2022-08-28T01:00:46.619Z,5.20
2022-08-28T01:03:32.469Z,5.13
2022-08-28T01:06:20.859Z,5.10
2022-08-28T01:09:06.547Z,4.90
2022-08-28T01:11:56.458Z,6.10
2022-08-28T01:14:46.009Z,5.50
2022-08-28T01:17:34.950Z,5.65
2022-08-28T01:20:25.967Z,5.72
2022-08-28T01:23:36.094Z,6.10
2022-08-28T01:26:22.841Z,5.70
2022-08-28T01:29:09.613Z,5.63
2022-08-28T01:31:55.417Z,5.78
2022-08-28T01:34:41.310Z,6.07
2022-08-28T01:37:26.953Z,5.80
2022-08-28T01:40:17.635Z,5.13
2022-08-28T01:43:12.694Z,5.85
2022-08-28T01:46:02.267Z,5.45
2022-08-28T01:48:48.799Z,4.90
2022-08-28T01:51:35.182Z,5.40
2022-08-28T01:54:26.298Z,6.45
2022-08-28T01:57:12.803Z,6.32
2022-08-28T01:59:58.821Z,5.93
2022-08-28T02:02:44.368Z,5.55
2022-08-28T02:05:32.650Z,6.25
2022-08-28T02:08:18.635Z,4.95
2022-08-28T02:11:06.441Z,4.88
2022-08-28T02:13:54.258Z,6.63
2022-08-28T02:16:39.952Z,5.40
2022-08-28T02:19:25.419Z,4.95
2022-08-28T02:22:13.451Z,5.85
2022-08-28T02:25:00.455Z,5.10
2022-08-28T02:27:46.179Z,4.80
2022-08-28T02:30:32.206Z,4.50
2022-08-28T02:33:18.046Z,4.57
2022-08-28T02:36:03.656Z,4.43
2022-08-28T02:38:54.145Z,5.07
2022-08-28T02:41:43.422Z,5.20
2022-08-28T02:44:28.876Z,5.90
2022-08-28T02:47:15.323Z,4.63
2022-08-28T02:50:00.984Z,4.82
2022-08-28T02:52:47.218Z,4.15
2022-08-28T02:55:34.313Z,6.13
2022-08-28T02:58:20.238Z,6.03
2022-08-28T03:01:07.701Z,5.78
2022-08-28T03:03:53.588Z,5.03
2022-08-28T03:06:39.329Z,5.80
2022-08-28T03:09:27.390Z,5.97
2022-08-28T03:12:17.128Z,6.90
2022-08-28T03:15:03.838Z,6.25
2022-08-28T03:17:49.723Z,5.22
2022-08-28T03:20:36.107Z,5.13
2022-08-28T03:23:27.503Z,5.25
2022-08-28T03:26:20.827Z,4.90
2022-08-28T03:29:07.489Z,5.90
2022-08-28T03:31:53.654Z,5.15
2022-08-28T03:34:41.231Z,5.30
2022-08-28T03:37:27.276Z,5.43
2022-08-28T03:40:25.900Z,5.97
2022-08-28T03:43:17.566Z,6.45
2022-08-28T03:46:06.765Z,6.10
2022-08-28T03:48:55.312Z,5.75
2022-08-28T03:51:42.688Z,5.45
2022-08-28T03:54:32.120Z,5.60
2022-08-28T03:57:21.386Z,5.22
2022-08-28T04:00:12.695Z,5.25
2022-08-28T04:02:58.658Z,5.22
2022-08-28T04:05:47.374Z,5.65
2022-08-28T04:08:34.589Z,5.13
2022-08-28T04:11:21.041Z,5.15
2022-08-28T04:14:07.192Z,5.10
2022-08-28T04:16:53.070Z,5.47
2022-08-28T04:19:39.824Z,5.88
2022-08-28T04:22:29.349Z,6.18
2022-08-28T04:25:16.526Z,6.47
2022-08-28T04:28:04.368Z,6.22
2022-08-28T04:30:55.903Z,5.07
2022-08-28T04:33:44.457Z,5.93
2022-08-28T04:36:31.993Z,5.40
2022-08-28T04:39:17.953Z,5.78
2022-08-28T04:42:03.566Z,5.50
2022-08-28T04:44:49.539Z,4.70
2022-08-28T04:47:38.948Z,5.22
2022-08-28T04:50:25.646Z,4.75
2022-08-28T04:53:20.850Z,5.07
2022-08-28T04:56:11.788Z,5.97
2022-08-28T04:58:58.466Z,5.18
2022-08-28T05:01:44.728Z,5.38
2022-08-28T05:04:32.811Z,5.55
2022-08-28T05:07:23.827Z,5.47
2022-08-28T05:10:11.596Z,5.88
2022-08-28T05:13:01.856Z,6.85
2022-08-28T05:15:52.160Z,6.80
2022-08-28T05:18:40.600Z,6.13
2022-08-28T05:21:29.506Z,5.82
2022-08-28T05:24:26.152Z,6.22
2022-08-28T05:27:14.107Z,5.53
2022-08-28T05:30:08.794Z,5.80
2022-08-28T05:32:57.791Z,5.75
2022-08-28T05:35:47.662Z,5.88
2022-08-28T05:38:42.131Z,6.45
2022-08-28T05:41:31.103Z,6.00
2022-08-28T05:44:18.229Z,7.07
2022-08-28T05:47:04.498Z,7.00
2022-08-28T05:49:51.509Z,6.82
2022-08-28T05:52:38.065Z,7.03
2022-08-28T05:55:23.844Z,7.13
2022-08-28T05:58:30.455Z,7.13
2022-08-28T06:01:25.204Z,6.78
2022-08-28T06:04:26.878Z,6.72
2022-08-28T06:07:22.323Z,7.05
2022-08-28T06:10:10.768Z,6.55
2022-08-28T06:12:57.325Z,6.75
2022-08-28T06:15:45.554Z,7.43
2022-08-28T06:18:32.707Z,6.18
2022-08-28T06:21:20.889Z,6.50
2022-08-28T06:24:08.475Z,6.85
2022-08-28T06:26:56.529Z,6.55
2022-08-28T06:29:45.947Z,7.22
2022-08-28T06:32:34.986Z,6.93
2022-08-28T06:35:21.899Z,7.00
2022-08-28T06:38:09.811Z,6.82
2022-08-28T06:40:57.227Z,6.93
2022-08-28T06:43:44.726Z,6.32
2022-08-28T06:46:36.703Z,6.53
2022-08-28T06:49:28.183Z,6.88
2022-08-28T06:52:24.519Z,6.60
2022-08-28T06:55:12.230Z,6.40
2022-08-28T06:57:59.341Z,7.10
2022-08-28T07:00:46.328Z,7.30
2022-08-28T07:03:33.416Z,6.05
2022-08-28T07:06:22.559Z,7.47
2022-08-28T07:09:13.367Z,7.38
2022-08-28T07:11:59.126Z,7.03
2022-08-28T07:14:44.992Z,7.05
2022-08-28T07:17:32.439Z,6.80
2022-08-28T07:20:18.769Z,6.22
2022-08-28T07:23:09.202Z,6.65
2022-08-28T07:25:55.631Z,7.43
2022-08-28T07:28:41.669Z,7.32
2022-08-28T07:31:27.949Z,6.55
2022-08-28T07:34:15.223Z,6.65
2022-08-28T07:37:04.331Z,7.63
2022-08-28T07:39:50.245Z,6.55
2022-08-28T07:42:55.483Z,6.82
2022-08-28T07:45:43.599Z,7.70
2022-08-28T07:48:31.077Z,7.00
2022-08-28T07:51:19.010Z,6.40
2022-08-28T07:54:15.558Z,7.13
2022-08-28T07:57:06.507Z,6.70
2022-08-28T07:59:53.250Z,6.57
2022-08-28T08:02:41.032Z,6.18
2022-08-28T08:05:28.205Z,6.55
2022-08-28T08:08:14.539Z,7.20
2022-08-28T08:11:07.955Z,6.75
2022-08-28T08:14:04.842Z,6.35
2022-08-28T08:16:54.645Z,6.30
2022-08-28T08:19:44.261Z,5.47
2022-08-28T08:22:32.285Z,6.07
2022-08-28T08:25:17.956Z,6.40
2022-08-28T08:28:04.922Z,5.32
2022-08-28T08:30:50.955Z,4.97
2022-08-28T08:33:38.934Z,5.05
2022-08-28T08:36:27.207Z,5.35
2022-08-28T08:39:13.355Z,5.13
2022-08-28T08:42:01.319Z,5.03
2022-08-28T08:44:48.952Z,4.72
2022-08-28T08:47:44.032Z,4.50
2022-08-28T08:50:33.228Z,4.50
2022-08-28T08:53:52.008Z,4.45
2022-08-28T08:56:40.089Z,4.45
2022-08-28T08:59:27.603Z,4.13
2022-08-28T09:02:19.368Z,4.40
2022-08-28T09:05:17.001Z,4.70
2022-08-28T09:08:04.529Z,4.28
2022-08-28T09:11:28.837Z,3.85
2022-08-28T09:14:43.959Z,4.45
2022-08-28T09:17:35.284Z,3.83
2022-08-28T09:23:21.437Z,4.78
2022-08-28T09:26:12.885Z,4.43
2022-08-28T09:29:05.471Z,4.60
2022-08-28T09:31:51.303Z,5.05
2022-08-28T09:34:39.264Z,4.35
2022-08-28T09:37:26.665Z,4.22
2022-08-28T09:40:50.449Z,4.38
2022-08-28T09:43:37.811Z,4.50
2022-08-28T09:46:32.294Z,4.05
2022-08-28T09:49:26.111Z,4.03
2022-08-28T09:52:24.593Z,4.32
2022-08-28T09:55:18.456Z,4.43
2022-08-28T09:58:06.707Z,4.53
2022-08-28T10:01:11.239Z,4.60
2022-08-28T10:04:22.474Z,5.30
2022-08-28T10:07:32.613Z,4.60
2022-08-28T10:10:26.975Z,5.38
2022-08-28T10:13:37.104Z,5.00
2022-08-28T10:16:43.491Z,4.53
2022-08-28T10:19:59.479Z,4.78
2022-08-28T10:22:51.006Z,4.70
2022-08-28T10:25:46.360Z,4.88
2022-08-28T10:28:51.560Z,4.05
2022-08-28T10:31:50.081Z,3.70
2022-08-28T10:35:09.088Z,4.20
2022-08-28T10:38:03.950Z,4.72
2022-08-28T10:41:10.948Z,4.22
2022-08-28T10:44:01.767Z,4.18
2022-08-28T10:49:42.186Z,3.85
2022-08-28T10:52:40.959Z,3.92
2022-08-28T10:55:34.731Z,3.85
2022-08-28T10:58:25.993Z,3.40
2022-08-28T11:01:18.732Z,3.53
2022-08-28T11:04:24.929Z,3.95
2022-08-28T11:07:15.306Z,4.22
2022-08-28T11:10:32.370Z,4.30
2022-08-28T11:13:57.539Z,4.45
2022-08-28T11:16:50.502Z,4.07
2022-08-28T11:19:51.646Z,4.38
2022-08-28T11:22:47.039Z,3.80
2022-08-28T11:25:45.633Z,3.70
2022-08-28T11:28:36.800Z,3.72
2022-08-28T11:31:30.696Z,3.33
2022-08-28T11:34:53.950Z,3.97
2022-08-28T11:37:46.335Z,4.10
2022-08-28T11:40:32.447Z,3.55
2022-08-28T11:43:18.797Z,3.40
2022-08-28T11:46:12.102Z,3.33
2022-08-28T11:49:01.123Z,2.83
2022-08-28T11:51:52.760Z,3.05
2022-08-28T11:55:13.544Z,3.30
2022-08-28T12:01:06.083Z,3.00
2022-08-28T12:03:58.814Z,2.95
2022-08-28T12:06:44.435Z,3.10
2022-08-28T12:09:36.611Z,3.65
2022-08-28T12:12:22.150Z,3.97
2022-08-28T12:15:09.914Z,3.35
2022-08-28T12:18:08.780Z,3.17
2022-08-28T12:20:54.823Z,3.50
2022-08-28T12:24:09.053Z,2.97
2022-08-28T12:26:57.243Z,3.40
2022-08-28T12:29:51.704Z,3.30
2022-08-28T12:32:56.338Z,3.13
2022-08-28T12:35:43.921Z,3.33
2022-08-28T12:38:33.656Z,3.50
2022-08-28T12:41:22.141Z,2.67
2022-08-28T12:44:12.232Z,3.40
2022-08-28T12:46:59.507Z,3.65
2022-08-28T12:49:45.750Z,3.78
2022-08-28T12:52:33.747Z,4.15
2022-08-28T12:55:24.327Z,3.33
2022-08-28T12:58:27.970Z,3.45
2022-08-28T13:01:28.424Z,3.63
2022-08-28T13:04:37.201Z,3.20
2022-08-28T13:07:35.366Z,3.60
2022-08-28T13:10:26.882Z,3.30
2022-08-28T13:13:30.911Z,2.92
2022-08-28T13:16:44.996Z,2.85
2022-08-28T13:19:34.608Z,3.65
2022-08-28T13:22:38.887Z,3.92
2022-08-28T13:25:32.423Z,4.00
2022-08-28T13:28:19.653Z,3.00
2022-08-28T13:31:06.343Z,3.63
2022-08-28T13:34:24.675Z,4.53
2022-08-28T13:38:01.215Z,3.33
2022-08-28T13:40:59.811Z,5.57
2022-08-28T13:43:47.913Z,4.47
2022-08-28T13:46:34.182Z,4.88
2022-08-28T13:49:21.485Z,3.88
2022-08-28T13:52:09.559Z,3.97
2022-08-28T13:54:56.113Z,3.42
2022-08-28T13:57:42.672Z,4.32
2022-08-28T14:00:32.488Z,4.45
2022-08-28T14:03:38.482Z,4.13
2022-08-28T14:06:24.499Z,4.30
2022-08-28T14:09:18.360Z,4.40
2022-08-28T14:12:05.311Z,4.22
2022-08-28T14:14:52.883Z,4.10
2022-08-28T14:17:39.907Z,4.70
2022-08-28T14:20:25.507Z,4.72
2022-08-28T14:23:12.368Z,4.53
2022-08-28T14:26:01.430Z,4.82
2022-08-28T14:28:46.611Z,5.03
2022-08-28T14:31:36.430Z,4.40
2022-08-28T14:34:22.968Z,4.35
2022-08-28T14:37:09.224Z,4.10
2022-08-28T14:39:55.606Z,4.38
2022-08-28T14:42:41.947Z,4.15
2022-08-28T14:45:27.452Z,4.45
2022-08-28T14:48:14.466Z,4.20
2022-08-28T14:51:01.797Z,4.10
2022-08-28T14:53:47.486Z,4.57
2022-08-28T14:56:33.239Z,3.80
2022-08-28T14:59:24.543Z,4.45
2022-08-28T15:02:10.355Z,3.72
2022-08-28T15:04:56.095Z,4.10
2022-08-28T15:07:42.076Z,4.88
2022-08-28T15:10:27.538Z,5.10
2022-08-28T15:13:13.305Z,4.78
2022-08-28T15:16:03.595Z,5.00
2022-08-28T15:18:49.659Z,4.40
2022-08-28T15:21:40.539Z,3.95
2022-08-28T15:27:14.427Z,4.50
2022-08-28T15:29:59.963Z,3.83
2022-08-28T15:32:47.431Z,3.85
2022-08-28T15:35:34.495Z,3.72
2022-08-28T15:38:20.153Z,3.80
2022-08-28T15:41:24.204Z,4.13
2022-08-28T15:44:14.440Z,3.80
2022-08-28T15:47:03.182Z,3.95
2022-08-28T15:49:54.913Z,3.58
2022-08-28T15:52:41.495Z,4.10
2022-08-28T15:55:28.961Z,3.90
2022-08-28T15:58:14.893Z,3.90
2022-08-28T16:01:00.571Z,4.38
2022-08-28T16:03:46.230Z,3.65
2022-08-28T16:06:32.782Z,4.68
2022-08-28T16:09:18.661Z,3.92
2022-08-28T16:12:04.865Z,3.63
2022-08-28T16:14:50.618Z,3.60
2022-08-28T16:17:37.088Z,4.40
2022-08-28T16:20:22.995Z,4.50
2022-08-28T16:23:10.133Z,5.35
2022-08-28T16:25:55.739Z,5.78
2022-08-28T16:28:42.404Z,4.55
2022-08-28T16:31:29.115Z,4.80
2022-08-28T16:34:19.475Z,11.80
2022-08-28T16:39:56.890Z,4.95
2022-08-28T16:42:51.295Z,5.28
2022-08-28T16:45:40.555Z,7.22
2022-08-28T16:48:30.513Z,11.88
2022-08-28T16:51:19.011Z,18.85
2022-08-28T16:54:07.248Z,13.98
2022-08-28T16:56:55.542Z,8.63
2022-08-28T16:59:41.923Z,4.60
2022-08-28T17:02:31.263Z,5.28
2022-08-28T17:05:20.643Z,5.88
2022-08-28T17:08:08.506Z,5.78
2022-08-28T17:10:55.809Z,4.38
2022-08-28T17:13:43.907Z,4.55
2022-08-28T17:16:34.347Z,5.25
2022-08-28T17:19:24.705Z,4.35
2022-08-28T17:22:30.044Z,5.83
2022-08-28T17:25:16.118Z,4.82
2022-08-28T17:28:06.142Z,5.68
2022-08-28T17:30:52.088Z,5.35
2022-08-28T17:33:41.553Z,5.97
2022-08-28T17:36:33.382Z,5.40
2022-08-28T17:42:11.429Z,4.85
2022-08-28T17:44:58.303Z,4.63
2022-08-28T17:47:44.975Z,5.13
2022-08-28T17:50:31.400Z,4.95
2022-08-28T17:53:18.702Z,4.82
2022-08-28T17:56:08.002Z,5.55
2022-08-28T17:58:56.561Z,4.90
2022-08-28T18:01:48.908Z,5.80
2022-08-28T18:04:37.341Z,5.25
2022-08-28T18:10:20.151Z,6.20
2022-08-28T18:13:14.389Z,5.78
2022-08-28T18:16:03.058Z,5.13
2022-08-28T18:18:51.437Z,5.75
2022-08-28T18:23:00.775Z,6.63
2022-08-28T18:25:46.652Z,6.15
2022-08-28T18:28:43.035Z,5.50
2022-08-28T18:31:29.618Z,5.40
2022-08-28T18:34:16.529Z,5.55
2022-08-28T18:37:03.461Z,6.05
2022-08-28T18:39:51.697Z,5.60
2022-08-28T18:42:42.605Z,6.25
2022-08-28T18:45:31.916Z,7.25
2022-08-28T18:48:20.609Z,8.32
2022-08-28T18:51:10.837Z,8.85
2022-08-28T18:54:02.091Z,9.00
2022-08-28T18:57:04.304Z,8.45
2022-08-28T18:59:53.241Z,7.40
2022-08-28T19:02:41.761Z,7.50
2022-08-28T19:05:30.811Z,6.72
2022-08-28T19:08:20.310Z,7.13
2022-08-28T19:11:11.255Z,6.88
2022-08-28T19:14:06.158Z,7.30
2022-08-28T19:16:58.166Z,7.50
2022-08-28T19:19:52.638Z,7.57
2022-08-28T19:22:40.639Z,8.18
2022-08-28T19:25:34.072Z,6.70
2022-08-28T19:28:22.559Z,7.22
2022-08-28T19:31:10.082Z,7.57
2022-08-28T19:33:57.830Z,7.28
2022-08-28T19:36:43.957Z,7.47
2022-08-28T19:39:30.258Z,7.25
2022-08-28T19:42:17.736Z,7.93
2022-08-28T19:45:11.041Z,7.03
2022-08-28T19:47:56.771Z,7.13
2022-08-28T19:50:44.060Z,7.47
2022-08-28T19:53:31.312Z,7.45
2022-08-28T19:56:17.125Z,7.60
2022-08-28T19:59:04.438Z,6.82
2022-08-28T20:01:50.270Z,7.82
2022-08-28T20:04:36.591Z,7.47
2022-08-28T20:07:24.539Z,6.93
2022-08-28T20:10:11.529Z,7.75
2022-08-28T20:12:58.678Z,7.60
2022-08-28T20:15:46.311Z,7.63
2022-08-28T20:18:33.395Z,7.55
2022-08-28T20:21:28.730Z,7.30
2022-08-28T20:24:24.231Z,7.13
2022-08-28T20:27:10.480Z,8.20
2022-08-28T20:29:57.237Z,7.28
2022-08-28T20:32:43.458Z,7.05
2022-08-28T20:35:29.834Z,7.55
2022-08-28T20:38:15.729Z,6.97
2022-08-28T20:41:18.361Z,7.40
2022-08-28T20:44:07.675Z,7.20
2022-08-28T20:46:53.735Z,7.00
2022-08-28T20:49:40.693Z,8.25
2022-08-28T20:52:26.826Z,6.82
2022-08-28T20:55:14.316Z,7.13
2022-08-28T20:58:00.081Z,6.65
2022-08-28T21:00:47.010Z,7.05
2022-08-28T21:03:32.928Z,6.05
2022-08-28T21:06:18.733Z,6.90
2022-08-28T21:12:48.238Z,6.75
2022-08-28T21:15:35.809Z,7.87
2022-08-28T21:18:21.293Z,7.82
2022-08-28T21:21:10.173Z,6.80
2022-08-28T21:23:56.554Z,5.95
2022-08-28T21:26:49.937Z,6.38
2022-08-28T21:29:37.644Z,6.68
2022-08-28T21:32:23.463Z,6.72
2022-08-28T21:35:12.774Z,6.40
2022-08-28T21:38:05.966Z,6.18
2022-08-28T21:41:02.247Z,5.93
2022-08-28T21:43:48.224Z,6.07
2022-08-28T21:46:34.854Z,6.30
2022-08-28T21:49:22.737Z,5.90
2022-08-28T21:52:08.747Z,5.85
2022-08-28T21:55:04.239Z,6.05
2022-08-28T21:57:52.330Z,6.25
2022-08-28T22:00:38.141Z,6.57
2022-08-28T22:03:25.341Z,5.78
2022-08-28T22:06:13.608Z,6.07
2022-08-28T22:09:00.115Z,6.75
2022-08-28T22:11:46.413Z,6.40
2022-08-28T22:14:32.805Z,5.68
2022-08-28T22:17:18.823Z,6.00
2022-08-28T22:20:05.548Z,5.63
2022-08-28T22:23:10.087Z,5.80
2022-08-28T22:25:56.026Z,5.95
2022-08-28T22:28:41.396Z,5.88
2022-08-28T22:31:31.135Z,6.15
2022-08-28T22:34:18.834Z,5.63
2022-08-28T22:37:04.319Z,6.35
2022-08-28T22:39:50.109Z,5.97
2022-08-28T22:42:39.131Z,6.55
2022-08-28T22:45:26.079Z,6.57
2022-08-28T22:48:15.932Z,6.07
2022-08-28T22:51:09.393Z,5.63
2022-08-28T22:53:56.555Z,6.00
2022-08-28T22:56:42.875Z,5.60
2022-08-28T22:59:28.480Z,5.60
2022-08-28T23:02:14.284Z,5.55
2022-08-28T23:04:59.989Z,5.40
2022-08-28T23:07:45.864Z,5.13
2022-08-28T23:10:55.187Z,4.80
2022-08-28T23:13:38.210Z,5.20
2022-08-28T23:16:24.241Z,5.00
2022-08-28T23:19:13.469Z,4.95
2022-08-28T23:21:59.969Z,5.30
2022-08-28T23:24:46.995Z,5.40
2022-08-28T23:27:36.169Z,4.95
2022-08-28T23:30:23.788Z,5.47
2022-08-28T23:33:09.509Z,4.93
2022-08-28T23:35:54.987Z,4.88
2022-08-28T23:38:43.186Z,5.07
2022-08-28T23:41:29.228Z,5.40
2022-08-28T23:44:16.821Z,4.70
2022-08-28T23:47:02.664Z,5.50
2022-08-28T23:49:48.762Z,5.32
2022-08-28T23:52:35.570Z,5.90
2022-08-28T23:55:21.449Z,5.45
2022-08-28T23:58:07.660Z,4.72
